Sharurah, Saudi Arabia
Current Conditions -  °F | °C
As of 4:00 PM on Monday 20 Oct 2014 (Local Time) from OESH Reporting Station
Clear Clear  
Wind Chill: 95°   Ceiling: Unl
Heat Index: 95°   Visibility: 6mi
Dew Point: 50°   Wind: 9mph
Humidity: 22%   Direction: 120°ESE
Pressure: 29.88"   Gusts: NA
Location:  17.49°N, 47.08°E
Report Text: OESH 201300Z 12008KT CAVOK 35/10 Q1012 NOSIG
Loading
Personal Weather Stations






























Interactive Weather Map
Tropical Storm Tracking
New forecast layout! Learn more

10-Day Weather Forecast

Advertisements
Track Severe Weather on mobile